Time;durP1;ratioP1;P1;durP2;ratioP2;P2;SDS_P1;SDS_P2;PMS_P1;PMS_P2;Temp;Humidity;BMP_temperature;BMP_pressure;BME280_temperature;BME280_humidity;BME280_pressure;Samples;Min_cycle;Max_cycle;Signal;HPM_P1;HPM_P2
2022/05/09 09:00:50;;;;;;;12.43;3.67;;;;;;;;;;5100533;27;20449;-62
2022/05/09 09:03:30;;;;;;;16.08;4.35;;;;;;;;;;5086477;28;20024;-63
2022/05/09 09:06:01;;;;;;;10.80;3.53;;;;;;;;;;5087720;28;20020;-63
2022/05/09 09:08:46;;;;;;;8.48;3.40;;;;;;;;;;5070950;28;20106;-62
2022/05/09 09:11:28;;;;;;;10.07;3.45;;;;;;;;;;5073076;28;20016;-62
2022/05/09 09:14:04;;;;;;;12.75;4.07;;;;;;;;;;5087483;28;20024;-62
2022/05/09 09:16:38;;;;;;;12.23;4.30;;;;;;;;;;5091012;28;20020;-62
2022/05/09 09:19:25;;;;;;;14.18;3.70;;;;;;;;;;5089512;28;20040;-63
2022/05/09 09:22:15;;;;;;;9.88;4.00;;;;;;;;;;5093697;28;20501;-63
2022/05/09 09:25:00;;;;;;;10.98;3.78;;;;;;;;;;5075527;28;20051;-63
2022/05/09 09:27:47;;;;;;;8.85;3.47;;;;;;;;;;5067468;28;20494;-63
2022/05/09 09:30:17;;;;;;;15.93;4.20;;;;;;;;;;5105967;28;20038;-63
2022/05/09 09:32:45;;;;;;;10.65;3.67;;;;;;;;;;5105962;28;20407;-63
2022/05/09 09:35:19;;;;;;;9.65;3.72;;;;;;;;;;5076723;28;20496;-63
2022/05/09 09:37:45;;;;;;;12.32;4.07;;;;;;;;;;5095555;28;20462;-63
2022/05/09 09:40:11;;;;;;;14.38;3.88;;;;;;;;;;5093791;28;20040;-63
2022/05/09 09:42:37;;;;;;;12.35;4.50;;;;;;;;;;5099253;28;20024;-63
2022/05/09 09:45:15;;;;;;;14.13;4.47;;;;;;;;;;5095298;28;20102;-62
2022/05/09 09:47:41;;;;;;;12.23;4.07;;;;;;;;;;5086497;28;20035;-63
2022/05/09 09:50:13;;;;;;;11.70;4.18;;;;;;;;;;5087211;28;20406;-63
2022/05/09 09:52:42;;;;;;;12.05;3.95;;;;;;;;;;5087884;28;20020;-62
2022/05/09 09:55:23;;;;;;;13.20;3.90;;;;;;;;;;5087126;28;20100;-61
2022/05/09 09:57:50;;;;;;;11.43;3.92;;;;;;;;;;5083728;28;20108;-63
2022/05/09 10:00:28;;;;;;;12.02;4.10;;;;;;;;;;5086659;28;20040;-63
2022/05/09 10:02:56;;;;;;;12.48;4.18;;;;;;;;;;5087063;28;20032;-62
2022/05/09 10:05:33;;;;;;;11.60;4.05;;;;;;;;;;5086626;28;20047;-62
2022/05/09 10:07:59;;;;;;;13.80;3.92;;;;;;;;;;5086694;28;20443;-62
2022/05/09 10:10:27;;;;;;;13.10;4.13;;;;;;;;;;5088438;28;20024;-62
2022/05/09 10:12:57;;;;;;;11.07;4.00;;;;;;;;;;5076809;28;20438;-62
2022/05/09 10:15:39;;;;;;;11.65;3.83;;;;;;;;;;5073024;28;20020;-62
2022/05/09 10:18:19;;;;;;;10.95;3.95;;;;;;;;;;5073302;28;20059;-62
2022/05/09 10:20:48;;;;;;;9.88;3.70;;;;;;;;;;5073636;28;20037;-62
2022/05/09 10:26:17;;;;;;;9.73;3.35;;;;;;;;;;5074035;28;20062;-62
2022/05/09 10:28:48;;;;;;;10.48;4.53;;;;;;;;;;5073526;28;20033;-62
2022/05/09 10:31:21;;;;;;;10.27;3.58;;;;;;;;;;5083845;28;20023;-62
2022/05/09 10:34:08;;;;;;;10.68;3.70;;;;;;;;;;5059618;28;20024;-63
2022/05/09 10:36:40;;;;;;;10.60;4.00;;;;;;;;;;5064934;28;20421;-62
2022/05/09 10:39:18;;;;;;;19.73;4.25;;;;;;;;;;5067260;28;20438;-63
2022/05/09 10:41:47;;;;;;;9.68;3.67;;;;;;;;;;5072497;28;20474;-62
2022/05/09 10:44:17;;;;;;;10.98;3.83;;;;;;;;;;5072519;28;20095;-62
2022/05/09 10:46:44;;;;;;;9.05;3.85;;;;;;;;;;5056204;28;20017;-62
2022/05/09 10:49:13;;;;;;;8.25;3.80;;;;;;;;;;5071061;28;20043;-62
2022/05/09 10:51:55;;;;;;;9.55;3.70;;;;;;;;;;5072563;28;20024;-62
2022/05/09 10:54:50;;;;;;;11.10;4.03;;;;;;;;;;5087806;28;20090;-62
2022/05/09 10:57:20;;;;;;;9.80;2.97;;;;;;;;;;5052705;28;20048;-63
2022/05/09 10:59:47;;;;;;;12.27;4.20;;;;;;;;;;5056158;28;20056;-63
2022/05/09 11:02:34;;;;;;;10.35;3.55;;;;;;;;;;5062920;28;20029;-62
2022/05/09 11:05:00;;;;;;;9.05;3.88;;;;;;;;;;5054010;28;20579;-63
2022/05/09 11:07:32;;;;;;;12.95;3.75;;;;;;;;;;5067043;28;20047;-64
2022/05/09 11:10:04;;;;;;;9.32;3.47;;;;;;;;;;5071869;28;20438;-63
2022/05/09 11:12:46;;;;;;;10.80;3.90;;;;;;;;;;5065320;28;20444;-63
2022/05/09 11:15:30;;;;;;;12.50;5.10;;;;;;;;;;5062038;28;20028;-64
2022/05/09 11:18:05;;;;;;;10.82;4.13;;;;;;;;;;5087196;28;20072;-62
2022/05/09 11:20:41;;;;;;;10.18;4.10;;;;;;;;;;5068757;28;20037;-62
2022/05/09 11:23:25;;;;;;;11.02;3.92;;;;;;;;;;5067207;28;20028;-63
2022/05/09 11:25:55;;;;;;;8.27;3.42;;;;;;;;;;5071783;28;20059;-62
2022/05/09 11:28:37;;;;;;;9.32;4.03;;;;;;;;;;5068911;28;20047;-63
2022/05/09 11:31:09;;;;;;;11.93;4.68;;;;;;;;;;5052078;28;20032;-62
2022/05/09 11:33:48;;;;;;;10.35;4.28;;;;;;;;;;5055736;28;20029;-64
2022/05/09 11:36:33;;;;;;;10.13;3.95;;;;;;;;;;5054421;28;20450;-62
2022/05/09 11:39:02;;;;;;;10.27;4.85;;;;;;;;;;5073270;28;20136;-63
2022/05/09 11:41:39;;;;;;;13.88;4.65;;;;;;;;;;5058041;28;20471;-63
2022/05/09 11:44:13;;;;;;;9.43;4.80;;;;;;;;;;5071674;28;20027;-63
2022/05/09 11:47:04;;;;;;;13.88;4.50;;;;;;;;;;5070788;28;20029;-63
2022/05/09 11:49:51;;;;;;;8.60;4.63;;;;;;;;;;5051652;28;20486;-63
2022/05/09 11:52:29;;;;;;;15.45;4.90;;;;;;;;;;5051911;28;20029;-63
2022/05/09 11:55:00;;;;;;;10.55;4.10;;;;;;;;;;5067810;28;20059;-63
2022/05/09 11:57:30;;;;;;;11.13;4.68;;;;;;;;;;5085957;28;20086;-63
2022/05/09 11:59:58;;;;;;;13.07;4.82;;;;;;;;;;5071051;28;20126;-62
2022/05/09 12:02:39;;;;;;;13.15;4.53;;;;;;;;;;5051522;28;20104;-63
2022/05/09 12:05:24;;;;;;;8.35;4.40;;;;;;;;;;5057038;28;20411;-63
2022/05/09 12:07:51;;;;;;;13.13;4.75;;;;;;;;;;5051890;28;20033;-64
2022/05/09 12:10:27;;;;;;;11.65;4.55;;;;;;;;;;5054402;28;20052;-64
2022/05/09 12:12:55;;;;;;;11.60;4.75;;;;;;;;;;5069533;28;20107;-64
2022/05/09 12:15:21;;;;;;;9.77;4.47;;;;;;;;;;5055211;28;20585;-64
2022/05/09 12:17:50;;;;;;;13.10;4.65;;;;;;;;;;5066548;28;20104;-64
2022/05/09 12:20:25;;;;;;;10.23;4.80;;;;;;;;;;5079715;28;20119;-64
2022/05/09 12:22:52;;;;;;;14.93;4.88;;;;;;;;;;5090513;28;20065;-64
2022/05/09 12:25:37;;;;;;;11.80;4.60;;;;;;;;;;5090808;28;20028;-63
2022/05/09 12:28:18;;;;;;;17.05;5.03;;;;;;;;;;5091288;28;20024;-63
2022/05/09 12:30:49;;;;;;;10.15;5.10;;;;;;;;;;5085369;28;20059;-63
2022/05/09 12:33:15;;;;;;;14.02;5.05;;;;;;;;;;5051169;28;20029;-63
2022/05/09 12:35:41;;;;;;;9.65;4.43;;;;;;;;;;5051421;28;20483;-63
2022/05/09 12:38:10;;;;;;;13.38;5.05;;;;;;;;;;5068490;28;20478;-63
2022/05/09 12:40:37;;;;;;;11.20;5.10;;;;;;;;;;5070985;28;20486;-63
2022/05/09 12:43:04;;;;;;;12.50;5.00;;;;;;;;;;5071088;28;20020;-63
2022/05/09 12:45:30;;;;;;;13.80;5.30;;;;;;;;;;5070963;28;20028;-63
2022/05/09 12:47:57;;;;;;;11.45;5.07;;;;;;;;;;5052568;28;20490;-63
2022/05/09 12:50:24;;;;;;;12.23;5.40;;;;;;;;;;5071455;28;20024;-63
2022/05/09 12:53:10;;;;;;;13.63;5.20;;;;;;;;;;5072421;28;20043;-63
2022/05/09 12:55:55;;;;;;;12.13;5.43;;;;;;;;;;5070383;28;20031;-63
2022/05/09 12:58:27;;;;;;;12.95;5.28;;;;;;;;;;5070688;28;20468;-63
2022/05/09 13:01:17;;;;;;;9.55;5.40;;;;;;;;;;5070317;28;20036;-63
2022/05/09 13:04:03;;;;;;;16.05;5.03;;;;;;;;;;5070006;28;20041;-63
2022/05/09 13:06:33;;;;;;;11.82;5.80;;;;;;;;;;5069694;28;20107;-63
2022/05/09 13:09:11;;;;;;;10.90;5.45;;;;;;;;;;5070580;28;20021;-63
2022/05/09 13:11:37;;;;;;;13.05;5.78;;;;;;;;;;5070572;28;20036;-63
2022/05/09 13:14:10;;;;;;;11.85;5.50;;;;;;;;;;5070531;28;20028;-62
2022/05/09 13:16:36;;;;;;;;;;;;;;;;;;5071141;28;20491;-63
2022/05/09 13:19:03;;;;;;;9.27;5.88;;;;;;;;;;5070851;28;19923;-63
2022/05/09 13:21:33;;;;;;;12.75;6.00;;;;;;;;;;5070302;28;20021;-62
2022/05/09 13:24:03;;;;;;;10.43;5.40;;;;;;;;;;5071114;28;20020;-62
2022/05/09 13:26:29;;;;;;;9.20;5.63;;;;;;;;;;5071430;28;20020;-63
2022/05/09 13:29:08;;;;;;;10.02;6.30;;;;;;;;;;5070696;28;20025;-64
2022/05/09 13:31:44;;;;;;;11.23;5.90;;;;;;;;;;5070513;28;20166;-64
2022/05/09 13:34:18;;;;;;;14.10;6.40;;;;;;;;;;5070821;28;20036;-63
2022/05/09 13:36:45;;;;;;;11.77;5.93;;;;;;;;;;5070760;28;20391;-62
2022/05/09 13:39:25;;;;;;;13.65;6.35;;;;;;;;;;5069685;28;20032;-63
2022/05/09 13:41:52;;;;;;;12.80;6.40;;;;;;;;;;5070532;28;20016;-63
2022/05/09 13:44:20;;;;;;;11.13;5.53;;;;;;;;;;5070341;28;20035;-63
2022/05/09 13:46:47;;;;;;;11.75;5.68;;;;;;;;;;5072915;28;20115;-63
2022/05/09 13:49:14;;;;;;;16.23;6.70;;;;;;;;;;5073695;28;20071;-64
2022/05/09 13:51:42;;;;;;;15.50;6.10;;;;;;;;;;5073908;28;20029;-63
2022/05/09 13:54:09;;;;;;;12.85;6.28;;;;;;;;;;5074083;28;20024;-63
2022/05/09 13:56:37;;;;;;;14.50;6.57;;;;;;;;;;5063811;28;20100;-64
2022/05/09 13:59:05;;;;;;;11.52;6.07;;;;;;;;;;5069057;28;20044;-63
2022/05/09 14:01:42;;;;;;;9.82;6.15;;;;;;;;;;5053594;28;20025;-63
2022/05/09 14:04:13;;;;;;;11.95;6.00;;;;;;;;;;5053698;28;20553;-62
2022/05/09 14:06:39;;;;;;;13.35;6.70;;;;;;;;;;5053438;28;20130;-64
2022/05/09 14:09:07;;;;;;;11.32;7.32;;;;;;;;;;5055430;28;20033;-63
2022/05/09 14:11:36;;;;;;;15.68;6.63;;;;;;;;;;5073633;28;20489;-63
2022/05/09 14:14:03;;;;;;;14.23;6.70;;;;;;;;;;5072547;28;20029;-63
2022/05/09 14:16:34;;;;;;;12.60;5.93;;;;;;;;;;5076160;28;20024;-63
2022/05/09 14:19:09;;;;;;;13.02;6.22;;;;;;;;;;5076221;28;20032;-63
2022/05/09 14:21:58;;;;;;;12.20;6.88;;;;;;;;;;5072772;28;20060;-63
2022/05/09 14:24:26;;;;;;;11.60;6.78;;;;;;;;;;5073317;28;20027;-61
2022/05/09 14:29:51;;;;;;;9.95;6.43;;;;;;;;;;5070700;28;20398;-62
2022/05/09 14:32:36;;;;;;;13.50;6.70;;;;;;;;;;5067867;28;20475;-62
2022/05/09 14:35:03;;;;;;;14.43;6.03;;;;;;;;;;5052800;28;20025;-63
2022/05/09 14:37:32;;;;;;;10.98;6.93;;;;;;;;;;5061136;28;20709;-62
2022/05/09 14:40:14;;;;;;;13.55;6.57;;;;;;;;;;5072434;28;20040;-63
2022/05/09 14:42:52;;;;;;;15.70;6.55;;;;;;;;;;5073001;28;20108;-62
2022/05/09 14:45:37;;;;;;;17.40;6.50;;;;;;;;;;5071410;28;20038;-62
2022/05/09 14:48:12;;;;;;;14.23;7.25;;;;;;;;;;5072176;28;20028;-62
2022/05/09 14:50:40;;;;;;;13.23;6.30;;;;;;;;;;5072938;28;20028;-62
2022/05/09 14:53:09;;;;;;;11.60;7.05;;;;;;;;;;5072926;28;20206;-62
2022/05/09 14:58:25;;;;;;;12.90;7.57;;;;;;;;;;5072034;28;20050;-65
2022/05/09 15:00:58;;;;;;;13.13;7.63;;;;;;;;;;5083072;28;20379;-63
2022/05/09 15:03:25;;;;;;;12.35;7.13;;;;;;;;;;5074587;28;20039;-63
2022/05/09 15:05:52;;;;;;;14.43;7.28;;;;;;;;;;5052576;28;20037;-63
2022/05/09 15:08:19;;;;;;;13.48;7.63;;;;;;;;;;5067565;28;20100;-62
2022/05/09 15:10:46;;;;;;;14.70;6.97;;;;;;;;;;5067563;28;20474;-63
2022/05/09 15:13:20;;;;;;;17.02;7.53;;;;;;;;;;5072596;28;20021;-63
2022/05/09 15:15:49;;;;;;;15.70;7.45;;;;;;;;;;5072349;28;20475;-63
2022/05/09 15:18:16;;;;;;;15.07;7.75;;;;;;;;;;5072333;28;20017;-63
2022/05/09 15:20:42;;;;;;;13.25;7.00;;;;;;;;;;5069355;28;20384;-63
2022/05/09 15:23:08;;;;;;;17.50;6.97;;;;;;;;;;5052266;28;20025;-63
2022/05/09 15:25:35;;;;;;;11.35;6.82;;;;;;;;;;5052005;28;20522;-63
2022/05/09 15:28:01;;;;;;;14.98;7.43;;;;;;;;;;5052186;28;20025;-62
2022/05/09 15:30:28;;;;;;;14.43;7.15;;;;;;;;;;5052870;28;20025;-64
2022/05/09 15:32:55;;;;;;;11.60;6.72;;;;;;;;;;5091002;28;20081;-63
2022/05/09 15:35:22;;;;;;;13.90;6.25;;;;;;;;;;5091414;28;20024;-62
2022/05/09 15:37:48;;;;;;;11.05;5.80;;;;;;;;;;5065051;28;20479;-63
2022/05/09 15:40:14;;;;;;;14.10;6.68;;;;;;;;;;5070130;28;20044;-63
2022/05/09 15:42:41;;;;;;;12.32;6.63;;;;;;;;;;5071916;28;20032;-63
2022/05/09 15:45:09;;;;;;;12.40;5.97;;;;;;;;;;5071247;28;20032;-62
2022/05/09 15:47:38;;;;;;;13.57;6.30;;;;;;;;;;5069935;28;20036;-62
2022/05/09 15:50:05;;;;;;;12.32;6.40;;;;;;;;;;5057714;28;20083;-63
2022/05/09 15:52:32;;;;;;;14.80;6.35;;;;;;;;;;5065047;28;20054;-62
2022/05/09 15:55:02;;;;;;;12.85;6.65;;;;;;;;;;5066570;28;20075;-62
2022/05/09 15:57:28;;;;;;;14.45;6.90;;;;;;;;;;5056932;28;20082;-63
2022/05/09 15:59:56;;;;;;;14.07;6.70;;;;;;;;;;5056384;28;20060;-63
2022/05/09 16:02:24;;;;;;;11.45;6.82;;;;;;;;;;5060006;28;20028;-62
2022/05/09 16:04:50;;;;;;;14.20;6.78;;;;;;;;;;5066011;28;20809;-62
2022/05/09 16:12:46;;;;;;;10.20;6.68;;;;;;;;;;5065315;28;20043;-62
2022/05/09 16:15:13;;;;;;;13.80;6.95;;;;;;;;;;5071410;28;20480;-61
2022/05/09 16:17:39;;;;;;;15.35;7.07;;;;;;;;;;5071164;28;20028;-62
2022/05/09 16:20:07;;;;;;;14.73;6.50;;;;;;;;;;5070246;28;20033;-62
2022/05/09 16:22:33;;;;;;;12.05;6.57;;;;;;;;;;5070138;28;20032;-62
2022/05/09 16:25:01;;;;;;;10.60;6.18;;;;;;;;;;5058873;28;20028;-63
2022/05/09 16:27:33;;;;;;;13.63;6.72;;;;;;;;;;5062471;28;20033;-63
2022/05/09 16:30:00;;;;;;;12.02;6.60;;;;;;;;;;5061996;28;20149;-63
2022/05/09 16:32:33;;;;;;;13.50;6.60;;;;;;;;;;5069327;28;20025;-63
2022/05/09 16:34:59;;;;;;;14.35;7.15;;;;;;;;;;5069314;28;20086;-63
2022/05/09 16:37:26;;;;;;;12.55;6.82;;;;;;;;;;5063084;28;20021;-62
2022/05/09 16:39:53;;;;;;;15.02;7.50;;;;;;;;;;5050617;28;20120;-62
2022/05/09 16:42:21;;;;;;;12.45;7.22;;;;;;;;;;5053634;28;20025;-62
2022/05/09 16:44:56;;;;;;;15.23;7.25;;;;;;;;;;5065308;28;20037;-63
2022/05/09 16:47:23;;;;;;;12.07;7.53;;;;;;;;;;5067923;28;20037;-62
2022/05/09 16:49:49;;;;;;;13.52;6.97;;;;;;;;;;5072019;28;20028;-63
2022/05/09 16:52:15;;;;;;;13.43;7.15;;;;;;;;;;5071076;28;20033;-62
2022/05/09 16:54:41;;;;;;;11.85;6.82;;;;;;;;;;5069982;28;20032;-62
2022/05/09 16:57:08;;;;;;;11.85;7.18;;;;;;;;;;5074116;28;20028;-62
2022/05/09 16:59:43;;;;;;;14.50;7.25;;;;;;;;;;5070897;28;20182;-62
2022/05/09 17:02:09;;;;;;;14.20;6.57;;;;;;;;;;5076894;28;20031;-62
2022/05/09 17:04:35;;;;;;;16.73;6.88;;;;;;;;;;5080416;28;20120;-62
2022/05/09 17:07:02;;;;;;;13.80;6.80;;;;;;;;;;5075213;28;20387;-63
2022/05/09 17:09:28;;;;;;;15.75;6.95;;;;;;;;;;5070415;28;20021;-63
2022/05/09 17:11:54;;;;;;;13.25;6.97;;;;;;;;;;5069163;28;20173;-63
2022/05/09 17:14:21;;;;;;;13.57;6.75;;;;;;;;;;5069539;28;20459;-63
2022/05/09 17:16:47;;;;;;;15.30;7.22;;;;;;;;;;5069260;28;20078;-63
2022/05/09 17:19:13;;;;;;;11.65;6.95;;;;;;;;;;5069199;28;20025;-63
2022/05/09 17:21:39;;;;;;;17.50;7.80;;;;;;;;;;5069580;28;20478;-63
2022/05/09 17:24:10;;;;;;;16.27;8.05;;;;;;;;;;5074627;28;20027;-68
2022/05/09 17:26:36;;;;;;;17.67;8.30;;;;;;;;;;5072654;28;20032;-63
2022/05/09 17:29:05;;;;;;;18.52;8.30;;;;;;;;;;5074245;28;20046;-63
2022/05/09 17:31:31;;;;;;;15.70;8.18;;;;;;;;;;5074634;28;20017;-63
2022/05/09 17:33:58;;;;;;;14.98;7.78;;;;;;;;;;5074422;28;20036;-63
2022/05/09 17:39:10;;;;;;;17.30;8.32;;;;;;;;;;5055600;28;20094;-62
2022/05/09 17:41:40;;;;;;;15.60;7.85;;;;;;;;;;5074376;28;20125;-62
2022/05/09 17:44:06;;;;;;;18.88;7.93;;;;;;;;;;5071214;28;20017;-63
2022/05/09 17:46:35;;;;;;;19.63;8.00;;;;;;;;;;5088975;28;20023;-63
2022/05/09 17:49:01;;;;;;;16.17;8.43;;;;;;;;;;5076249;28;20048;-63
2022/05/09 17:51:29;;;;;;;18.77;8.82;;;;;;;;;;5070243;28;20036;-62
2022/05/09 17:53:55;;;;;;;14.82;8.52;;;;;;;;;;5063989;28;20450;-63
2022/05/09 17:56:21;;;;;;;16.45;8.30;;;;;;;;;;5071700;28;20032;-63
2022/05/09 17:58:48;;;;;;;17.52;8.35;;;;;;;;;;5072550;28;20447;-63
2022/05/09 18:01:22;;;;;;;15.70;7.97;;;;;;;;;;5066238;28;20386;-64
2022/05/09 18:03:48;;;;;;;17.73;8.45;;;;;;;;;;5097246;28;20550;-64
2022/05/09 18:06:16;;;;;;;14.50;8.52;;;;;;;;;;5085987;28;20498;-63
2022/05/09 18:08:42;;;;;;;17.33;8.73;;;;;;;;;;5070409;28;20443;-64
2022/05/09 18:11:09;;;;;;;19.17;8.95;;;;;;;;;;5067538;28;20112;-63
2022/05/09 18:13:39;;;;;;;14.13;8.77;;;;;;;;;;5062150;28;20032;-62
2022/05/09 18:16:05;;;;;;;17.70;8.05;;;;;;;;;;5072190;28;20024;-64
2022/05/09 18:18:36;;;;;;;19.42;9.13;;;;;;;;;;5072515;28;20023;-64
2022/05/09 18:21:09;;;;;;;19.52;8.93;;;;;;;;;;5074262;28;20032;-64
2022/05/09 18:23:35;;;;;;;22.02;10.52;;;;;;;;;;5080242;28;20046;-63
2022/05/09 18:26:03;;;;;;;17.20;8.48;;;;;;;;;;5078622;28;20028;-64
2022/05/09 18:28:29;;;;;;;16.98;8.10;;;;;;;;;;5061042;28;20021;-63
2022/05/09 18:30:56;;;;;;;15.88;9.00;;;;;;;;;;5065032;28;20041;-64
2022/05/09 18:33:22;;;;;;;14.35;8.85;;;;;;;;;;5072951;28;20029;-63
2022/05/09 18:35:59;;;;;;;14.43;8.38;;;;;;;;;;5071577;28;20391;-63
2022/05/09 18:38:29;;;;;;;19.48;8.98;;;;;;;;;;5080623;28;20016;-63
2022/05/09 18:41:04;;;;;;;19.00;8.90;;;;;;;;;;5079531;28;20036;-63
2022/05/09 18:43:30;;;;;;;24.95;10.07;;;;;;;;;;5073116;28;20428;-64
2022/05/09 18:45:56;;;;;;;20.50;10.35;;;;;;;;;;5060208;28;20028;-63
2022/05/09 18:48:22;;;;;;;22.15;9.98;;;;;;;;;;5066153;28;20021;-63
2022/05/09 18:53:34;;;;;;;19.42;9.23;;;;;;;;;;5084911;28;20038;-63
2022/05/09 18:56:01;;;;;;;18.02;8.27;;;;;;;;;;5072955;28;20486;-63
2022/05/09 18:58:27;;;;;;;15.32;8.68;;;;;;;;;;5070313;28;20040;-63
2022/05/09 19:00:54;;;;;;;21.42;9.27;;;;;;;;;;5080212;28;20616;-63
2022/05/09 19:03:20;;;;;;;18.50;9.68;;;;;;;;;;5083267;28;20020;-64
2022/05/09 19:05:50;;;;;;;15.95;9.25;;;;;;;;;;5079443;28;20028;-64
2022/05/09 19:08:30;;;;;;;18.50;8.63;;;;;;;;;;5074621;28;20035;-63
2022/05/09 19:10:58;;;;;;;16.77;9.30;;;;;;;;;;5073376;28;20024;-63
2022/05/09 19:13:26;;;;;;;19.98;8.63;;;;;;;;;;5068761;28;20029;-62
2022/05/09 19:15:53;;;;;;;17.95;9.00;;;;;;;;;;5072310;28;20063;-62
2022/05/09 19:18:20;;;;;;;17.80;9.63;;;;;;;;;;5077562;28;20024;-62
2022/05/09 19:20:47;;;;;;;16.17;9.15;;;;;;;;;;5062419;28;20117;-62
2022/05/09 19:23:14;;;;;;;16.85;8.35;;;;;;;;;;5063618;28;20517;-63
2022/05/09 19:25:41;;;;;;;18.50;10.50;;;;;;;;;;5068227;28;20032;-63
2022/05/09 19:28:08;;;;;;;18.70;8.32;;;;;;;;;;5067409;28;20021;-63
2022/05/09 19:30:34;;;;;;;18.70;9.45;;;;;;;;;;5068189;28;20146;-62
2022/05/09 19:33:01;;;;;;;16.40;8.88;;;;;;;;;;5058322;28;20059;-62
2022/05/09 19:35:28;;;;;;;17.63;9.27;;;;;;;;;;5065196;28;20041;-62
2022/05/09 19:37:55;;;;;;;16.85;9.38;;;;;;;;;;5064832;28;20028;-63
2022/05/09 19:40:22;;;;;;;17.52;9.13;;;;;;;;;;5065701;28;20380;-63
2022/05/09 19:42:51;;;;;;;19.73;10.02;;;;;;;;;;5062761;28;20060;-63
2022/05/09 19:45:28;;;;;;;17.83;10.27;;;;;;;;;;5054653;28;20047;-62
2022/05/09 19:47:54;;;;;;;20.88;9.30;;;;;;;;;;5062502;28;20520;-63
2022/05/09 19:50:21;;;;;;;18.40;9.10;;;;;;;;;;5068310;28;20034;-63
2022/05/09 19:55:32;;;;;;;18.38;9.20;;;;;;;;;;5063378;28;20541;-62
2022/05/09 19:58:01;;;;;;;17.30;9.25;;;;;;;;;;5070279;28;20083;-62
2022/05/09 20:00:28;;;;;;;16.45;8.98;;;;;;;;;;5059801;28;20401;-63
2022/05/09 20:02:54;;;;;;;14.45;8.52;;;;;;;;;;5071480;28;20029;-63
2022/05/09 20:05:20;;;;;;;17.15;8.90;;;;;;;;;;5066211;28;20459;-63
2022/05/09 20:07:48;;;;;;;17.10;8.50;;;;;;;;;;5076761;28;20028;-62
2022/05/09 20:10:14;;;;;;;16.75;8.93;;;;;;;;;;5063232;28;20082;-63
2022/05/09 20:12:43;;;;;;;18.08;9.20;;;;;;;;;;5069671;28;20176;-63
2022/05/09 20:15:10;;;;;;;18.85;9.45;;;;;;;;;;5065617;28;20470;-63
2022/05/09 20:17:36;;;;;;;19.45;9.75;;;;;;;;;;5071014;28;20024;-62
2022/05/09 20:20:03;;;;;;;19.92;10.23;;;;;;;;;;5067988;28;20032;-63
2022/05/09 20:22:33;;;;;;;16.33;9.80;;;;;;;;;;5061781;28;20024;-63
2022/05/09 20:24:59;;;;;;;20.20;9.60;;;;;;;;;;5064825;28;20512;-63
2022/05/09 20:30:11;;;;;;;18.35;11.07;;;;;;;;;;5059383;28;20126;-62
2022/05/09 20:32:38;;;;;;;27.10;11.85;;;;;;;;;;5070128;28;20024;-62
2022/05/09 20:35:06;;;;;;;18.23;11.32;;;;;;;;;;5064021;28;20049;-63
2022/05/09 20:37:33;;;;;;;20.73;11.10;;;;;;;;;;5057463;28;20024;-63
2022/05/09 20:40:04;;;;;;;21.55;12.52;;;;;;;;;;5064491;28;20025;-62
2022/05/09 20:42:31;;;;;;;20.95;10.90;;;;;;;;;;5070841;28;20020;-63
2022/05/09 20:44:57;;;;;;;16.88;10.52;;;;;;;;;;5069514;28;20029;-62
2022/05/09 20:47:24;;;;;;;19.58;9.63;;;;;;;;;;5066772;28;20035;-62
2022/05/09 20:49:50;;;;;;;15.68;8.93;;;;;;;;;;5067937;28;20024;-62
2022/05/09 20:52:17;;;;;;;14.63;9.65;;;;;;;;;;5061427;28;20028;-63
2022/05/09 20:54:43;;;;;;;15.23;8.55;;;;;;;;;;5062815;28;20031;-62
2022/05/09 20:57:13;;;;;;;18.67;8.02;;;;;;;;;;5068137;28;20150;-62
2022/05/09 20:59:39;;;;;;;13.77;7.53;;;;;;;;;;5067283;28;20063;-63
2022/05/09 21:02:09;;;;;;;12.57;6.72;;;;;;;;;;5063654;28;20024;-63
2022/05/09 21:04:36;;;;;;;14.32;6.60;;;;;;;;;;5062159;28;20040;-63
2022/05/09 21:07:04;;;;;;;13.60;7.07;;;;;;;;;;5069429;28;20392;-60
2022/05/09 21:09:30;;;;;;;12.43;6.18;;;;;;;;;;5082053;28;20024;-62
2022/05/09 21:11:59;;;;;;;15.98;6.55;;;;;;;;;;5076663;28;20039;-63
2022/05/09 21:14:25;;;;;;;14.68;6.43;;;;;;;;;;5075705;28;20397;-63
2022/05/09 21:16:51;;;;;;;13.10;5.97;;;;;;;;;;5077321;28;20031;-63
2022/05/09 21:19:17;;;;;;;8.98;5.70;;;;;;;;;;5082351;28;20035;-62
2022/05/09 21:21:44;;;;;;;10.27;5.72;;;;;;;;;;5082332;28;20028;-63
2022/05/09 21:24:12;;;;;;;12.88;5.90;;;;;;;;;;5080535;28;20095;-63
2022/05/09 21:26:39;;;;;;;10.77;5.55;;;;;;;;;;5076208;28;20387;-63
2022/05/09 21:29:05;;;;;;;9.20;5.75;;;;;;;;;;5066972;28;20076;-62
2022/05/09 21:31:31;;;;;;;10.32;5.72;;;;;;;;;;5085314;28;20089;-63
2022/05/09 21:33:58;;;;;;;9.55;5.50;;;;;;;;;;5074408;28;20095;-62
2022/05/09 21:36:32;;;;;;;10.82;5.80;;;;;;;;;;5067718;28;20036;-63
2022/05/09 21:41:43;;;;;;;14.77;5.85;;;;;;;;;;5070328;28;20043;-63
2022/05/09 21:44:17;;;;;;;12.80;5.93;;;;;;;;;;5070418;28;20028;-63
2022/05/09 21:46:43;;;;;;;;;;;;;;;;;;5071113;28;20025;-63
2022/05/09 21:49:09;;;;;;;11.02;5.50;;;;;;;;;;5070409;28;20318;-63
2022/05/09 21:51:35;;;;;;;13.45;5.13;;;;;;;;;;5068925;28;20112;-63
2022/05/09 21:54:01;;;;;;;11.50;5.60;;;;;;;;;;5050478;28;20013;-62
2022/05/09 21:56:28;;;;;;;10.60;5.53;;;;;;;;;;5050413;28;20037;-63
2022/05/09 21:58:55;;;;;;;8.73;4.93;;;;;;;;;;5050291;28;20045;-63
2022/05/09 22:01:22;;;;;;;11.35;4.97;;;;;;;;;;5050269;28;20040;-63
2022/05/09 22:03:48;;;;;;;13.77;5.40;;;;;;;;;;5050527;28;20021;-63
2022/05/09 22:06:30;;;;;;;8.55;4.85;;;;;;;;;;5050620;28;20040;-63
2022/05/09 22:09:04;;;;;;;12.15;4.68;;;;;;;;;;5054721;28;20095;-62
2022/05/09 22:11:30;;;;;;;9.13;4.82;;;;;;;;;;5053965;28;20475;-62
2022/05/09 22:13:56;;;;;;;10.40;4.82;;;;;;;;;;5073853;28;20029;-63
2022/05/09 22:16:22;;;;;;;9.82;4.75;;;;;;;;;;5073732;28;20040;-63
2022/05/09 22:18:48;;;;;;;9.15;4.47;;;;;;;;;;5073920;28;20025;-62
2022/05/09 22:21:14;;;;;;;9.07;4.45;;;;;;;;;;5073275;28;20078;-62
2022/05/09 22:23:40;;;;;;;10.43;4.78;;;;;;;;;;5073279;28;20032;-62
2022/05/09 22:26:06;;;;;;;10.27;4.45;;;;;;;;;;5067863;28;20053;-63
2022/05/09 22:28:33;;;;;;;10.43;4.32;;;;;;;;;;5053682;28;20040;-64
2022/05/09 22:30:59;;;;;;;15.98;4.90;;;;;;;;;;5053567;28;20098;-62
2022/05/09 22:33:25;;;;;;;7.45;4.40;;;;;;;;;;5053787;28;20507;-63
2022/05/09 22:35:52;;;;;;;10.48;4.63;;;;;;;;;;5065863;28;20016;-62
2022/05/09 22:38:20;;;;;;;10.73;4.85;;;;;;;;;;5073579;28;20025;-63
2022/05/09 22:40:47;;;;;;;8.93;4.40;;;;;;;;;;5073510;28;20067;-63
2022/05/09 22:43:13;;;;;;;11.68;4.40;;;;;;;;;;5088299;28;20032;-62
2022/05/09 22:45:42;;;;;;;11.63;4.45;;;;;;;;;;5073761;28;20348;-63
2022/05/09 22:48:10;;;;;;;10.68;4.20;;;;;;;;;;5073642;28;20016;-62
2022/05/09 22:50:37;;;;;;;12.40;4.22;;;;;;;;;;5073524;28;20028;-63
2022/05/09 22:53:23;;;;;;;8.43;3.92;;;;;;;;;;5072153;28;20025;-63
2022/05/09 22:55:49;;;;;;;7.80;4.15;;;;;;;;;;5073311;28;20298;-63
2022/05/09 22:58:16;;;;;;;7.28;3.67;;;;;;;;;;5073309;28;20078;-63
2022/05/09 23:00:42;;;;;;;10.65;3.75;;;;;;;;;;5070957;28;20052;-63
2022/05/09 23:03:08;;;;;;;11.82;4.18;;;;;;;;;;5073152;28;20387;-63
2022/05/09 23:05:36;;;;;;;9.45;4.15;;;;;;;;;;5071252;28;20036;-64
2022/05/09 23:08:03;;;;;;;12.75;4.25;;;;;;;;;;5053170;28;20170;-63
2022/05/09 23:10:41;;;;;;;11.05;4.38;;;;;;;;;;5068321;28;20074;-63
2022/05/09 23:13:11;;;;;;;8.15;4.28;;;;;;;;;;5066037;28;20033;-63
2022/05/09 23:15:37;;;;;;;9.93;4.05;;;;;;;;;;5072707;28;20052;-63
2022/05/09 23:18:04;;;;;;;7.57;3.65;;;;;;;;;;5058774;28;20432;-62
2022/05/09 23:20:32;;;;;;;11.90;4.25;;;;;;;;;;5052544;28;20029;-63
2022/05/09 23:22:59;;;;;;;9.80;4.13;;;;;;;;;;5067735;28;20035;-63
2022/05/09 23:25:25;;;;;;;10.60;3.97;;;;;;;;;;5052628;28;20098;-62
2022/05/09 23:27:52;;;;;;;11.70;4.28;;;;;;;;;;5052310;28;20025;-63
2022/05/09 23:30:19;;;;;;;15.18;4.57;;;;;;;;;;5052562;28;20029;-63
2022/05/09 23:32:45;;;;;;;10.30;4.35;;;;;;;;;;5052570;28;20029;-63
2022/05/09 23:35:12;;;;;;;9.00;4.40;;;;;;;;;;5053042;28;20422;-63
2022/05/09 23:37:39;;;;;;;8.23;4.35;;;;;;;;;;5064451;28;20134;-62
2022/05/09 23:40:07;;;;;;;11.15;4.78;;;;;;;;;;5072345;28;20028;-63
2022/05/09 23:42:36;;;;;;;12.23;4.60;;;;;;;;;;5072372;28;20115;-62
2022/05/09 23:45:03;;;;;;;12.63;4.40;;;;;;;;;;5072165;28;20395;-63
2022/05/09 23:47:29;;;;;;;9.43;4.38;;;;;;;;;;5072264;28;20025;-63
2022/05/09 23:49:57;;;;;;;9.15;4.38;;;;;;;;;;5072136;28;20029;-63
2022/05/09 23:52:23;;;;;;;9.00;4.45;;;;;;;;;;5071583;28;20388;-64
2022/05/09 23:54:50;;;;;;;11.35;4.32;;;;;;;;;;5072032;28;20098;-63
2022/05/09 23:57:16;;;;;;;14.98;5.32;;;;;;;;;;5071789;28;20033;-63
2022/05/09 23:59:42;;;;;;;11.18;4.35;;;;;;;;;;5071952;28;20101;-63
